sensor_id;sensor_type;location;lat;lon;timestamp;temperature;humidity
23815;DHT22;12088;53.078;8.720;2023-01-19T00:01:54;2.80;99.90
23815;DHT22;12088;53.078;8.720;2023-01-19T00:04:20;2.80;99.90
23815;DHT22;12088;53.078;8.720;2023-01-19T00:06:45;2.80;99.90
23815;DHT22;12088;53.078;8.720;2023-01-19T00:09:11;2.80;99.90
23815;DHT22;12088;53.078;8.720;2023-01-19T00:11:36;2.80;99.90
23815;DHT22;12088;53.078;8.720;2023-01-19T00:14:02;2.80;99.90
23815;DHT22;12088;53.078;8.720;2023-01-19T00:16:28;2.90;99.90
23815;DHT22;12088;53.078;8.720;2023-01-19T00:18:54;2.80;99.90
23815;DHT22;12088;53.078;8.720;2023-01-19T00:21:20;2.80;99.90
23815;DHT22;12088;53.078;8.720;2023-01-19T00:23:47;2.80;99.90
23815;DHT22;12088;53.078;8.720;2023-01-19T00:26:14;2.80;99.90
23815;DHT22;12088;53.078;8.720;2023-01-19T00:28:41;2.80;99.90
23815;DHT22;12088;53.078;8.720;2023-01-19T00:31:07;2.80;99.90
23815;DHT22;12088;53.078;8.720;2023-01-19T00:33:32;2.80;99.90
23815;DHT22;12088;53.078;8.720;2023-01-19T00:35:58;2.80;99.90
23815;DHT22;12088;53.078;8.720;2023-01-19T00:38:24;2.90;99.90
23815;DHT22;12088;53.078;8.720;2023-01-19T00:40:49;2.90;99.90
23815;DHT22;12088;53.078;8.720;2023-01-19T00:43:15;2.90;99.90
23815;DHT22;12088;53.078;8.720;2023-01-19T00:45:40;2.90;99.90
23815;DHT22;12088;53.078;8.720;2023-01-19T00:48:06;2.90;99.90
23815;DHT22;12088;53.078;8.720;2023-01-19T00:50:32;2.90;99.90
23815;DHT22;12088;53.078;8.720;2023-01-19T00:52:58;2.90;99.90
23815;DHT22;12088;53.078;8.720;2023-01-19T00:55:25;2.90;99.90
23815;DHT22;12088;53.078;8.720;2023-01-19T00:57:53;3.00;99.90
23815;DHT22;12088;53.078;8.720;2023-01-19T01:00:19;3.00;99.90
23815;DHT22;12088;53.078;8.720;2023-01-19T01:02:46;3.00;99.90
23815;DHT22;12088;53.078;8.720;2023-01-19T01:05:12;3.00;99.90
23815;DHT22;12088;53.078;8.720;2023-01-19T01:07:38;3.00;99.90
23815;DHT22;12088;53.078;8.720;2023-01-19T01:10:17;2.90;99.90
23815;DHT22;12088;53.078;8.720;2023-01-19T01:12:45;2.90;99.90
23815;DHT22;12088;53.078;8.720;2023-01-19T01:15:12;2.90;99.90
23815;DHT22;12088;53.078;8.720;2023-01-19T01:17:38;2.90;99.90
23815;DHT22;12088;53.078;8.720;2023-01-19T01:20:23;2.90;99.90
23815;DHT22;12088;53.078;8.720;2023-01-19T01:22:50;2.90;99.90
23815;DHT22;12088;53.078;8.720;2023-01-19T01:25:19;2.90;99.90
23815;DHT22;12088;53.078;8.720;2023-01-19T01:27:44;2.80;99.90
23815;DHT22;12088;53.078;8.720;2023-01-19T01:30:12;2.80;99.90
23815;DHT22;12088;53.078;8.720;2023-01-19T01:32:38;2.80;99.90
23815;DHT22;12088;53.078;8.720;2023-01-19T01:35:05;2.70;99.90
23815;DHT22;12088;53.078;8.720;2023-01-19T01:37:30;2.70;99.90
23815;DHT22;12088;53.078;8.720;2023-01-19T01:39:56;2.70;99.90
23815;DHT22;12088;53.078;8.720;2023-01-19T01:42:29;2.70;99.90
23815;DHT22;12088;53.078;8.720;2023-01-19T01:44:57;2.70;99.90
23815;DHT22;12088;53.078;8.720;2023-01-19T01:47:43;2.80;99.90
23815;DHT22;12088;53.078;8.720;2023-01-19T01:50:27;2.80;99.90
23815;DHT22;12088;53.078;8.720;2023-01-19T01:53:10;2.70;99.90
23815;DHT22;12088;53.078;8.720;2023-01-19T01:55:40;2.80;99.90
23815;DHT22;12088;53.078;8.720;2023-01-19T01:58:08;2.80;99.90
23815;DHT22;12088;53.078;8.720;2023-01-19T02:00:35;2.80;99.90
23815;DHT22;12088;53.078;8.720;2023-01-19T02:03:22;2.90;99.90
23815;DHT22;12088;53.078;8.720;2023-01-19T02:05:48;2.80;99.90
23815;DHT22;12088;53.078;8.720;2023-01-19T02:08:39;2.90;99.90
23815;DHT22;12088;53.078;8.720;2023-01-19T02:11:25;2.90;99.90
23815;DHT22;12088;53.078;8.720;2023-01-19T02:14:10;2.90;99.90
23815;DHT22;12088;53.078;8.720;2023-01-19T02:16:36;2.90;99.90
23815;DHT22;12088;53.078;8.720;2023-01-19T02:19:04;2.80;99.90
23815;DHT22;12088;53.078;8.720;2023-01-19T02:24:50;2.70;99.90
23815;DHT22;12088;53.078;8.720;2023-01-19T02:27:17;2.80;99.90
23815;DHT22;12088;53.078;8.720;2023-01-19T02:29:43;2.80;99.90
23815;DHT22;12088;53.078;8.720;2023-01-19T02:32:08;2.80;99.90
23815;DHT22;12088;53.078;8.720;2023-01-19T02:34:34;2.80;99.90
23815;DHT22;12088;53.078;8.720;2023-01-19T02:37:11;2.80;99.90
23815;DHT22;12088;53.078;8.720;2023-01-19T02:39:44;2.80;99.90
23815;DHT22;12088;53.078;8.720;2023-01-19T02:42:14;2.80;99.90
23815;DHT22;12088;53.078;8.720;2023-01-19T02:44:44;2.70;99.90
23815;DHT22;12088;53.078;8.720;2023-01-19T02:47:11;2.70;99.90
23815;DHT22;12088;53.078;8.720;2023-01-19T02:49:37;2.70;99.90
23815;DHT22;12088;53.078;8.720;2023-01-19T02:52:03;2.80;99.90
23815;DHT22;12088;53.078;8.720;2023-01-19T03:09:34;2.80;99.90
23815;DHT22;12088;53.078;8.720;2023-01-19T03:12:30;2.80;99.90
23815;DHT22;12088;53.078;8.720;2023-01-19T03:15:00;2.80;99.90
23815;DHT22;12088;53.078;8.720;2023-01-19T03:17:32;2.80;99.90
23815;DHT22;12088;53.078;8.720;2023-01-19T03:19:59;2.80;99.90
23815;DHT22;12088;53.078;8.720;2023-01-19T03:22:28;2.90;99.90
23815;DHT22;12088;53.078;8.720;2023-01-19T03:24:57;2.80;99.90
23815;DHT22;12088;53.078;8.720;2023-01-19T03:27:32;2.90;99.90
23815;DHT22;12088;53.078;8.720;2023-01-19T03:30:08;2.90;99.90
23815;DHT22;12088;53.078;8.720;2023-01-19T03:32:42;2.90;99.90
23815;DHT22;12088;53.078;8.720;2023-01-19T03:35:11;2.80;99.90
23815;DHT22;12088;53.078;8.720;2023-01-19T03:37:40;2.80;99.90
23815;DHT22;12088;53.078;8.720;2023-01-19T03:40:08;2.80;99.90
23815;DHT22;12088;53.078;8.720;2023-01-19T03:42:35;2.80;99.90
23815;DHT22;12088;53.078;8.720;2023-01-19T03:45:02;2.80;99.90
23815;DHT22;12088;53.078;8.720;2023-01-19T03:47:28;2.80;99.90
23815;DHT22;12088;53.078;8.720;2023-01-19T03:49:55;2.80;99.90
23815;DHT22;12088;53.078;8.720;2023-01-19T03:52:29;2.80;99.90
23815;DHT22;12088;53.078;8.720;2023-01-19T03:54:56;2.70;99.90
23815;DHT22;12088;53.078;8.720;2023-01-19T03:57:22;2.80;99.90
23815;DHT22;12088;53.078;8.720;2023-01-19T03:59:48;2.70;99.90
23815;DHT22;12088;53.078;8.720;2023-01-19T04:02:14;2.70;99.90
23815;DHT22;12088;53.078;8.720;2023-01-19T04:04:39;2.70;99.90
23815;DHT22;12088;53.078;8.720;2023-01-19T04:07:05;2.70;99.90
23815;DHT22;12088;53.078;8.720;2023-01-19T04:09:31;2.70;99.90
23815;DHT22;12088;53.078;8.720;2023-01-19T04:11:56;2.70;99.90
23815;DHT22;12088;53.078;8.720;2023-01-19T04:14:22;2.70;99.90
23815;DHT22;12088;53.078;8.720;2023-01-19T04:16:47;2.70;99.90
23815;DHT22;12088;53.078;8.720;2023-01-19T04:19:13;2.70;99.90
23815;DHT22;12088;53.078;8.720;2023-01-19T04:21:38;2.70;99.90
23815;DHT22;12088;53.078;8.720;2023-01-19T04:24:04;2.70;99.90
23815;DHT22;12088;53.078;8.720;2023-01-19T04:26:30;2.70;99.90
23815;DHT22;12088;53.078;8.720;2023-01-19T04:28:56;2.70;99.90
23815;DHT22;12088;53.078;8.720;2023-01-19T04:31:22;2.70;99.90
23815;DHT22;12088;53.078;8.720;2023-01-19T04:33:48;2.70;99.90
23815;DHT22;12088;53.078;8.720;2023-01-19T04:36:13;2.70;99.90
23815;DHT22;12088;53.078;8.720;2023-01-19T04:38:39;2.70;99.90
23815;DHT22;12088;53.078;8.720;2023-01-19T04:41:05;2.70;99.90
23815;DHT22;12088;53.078;8.720;2023-01-19T04:43:30;2.60;99.90
23815;DHT22;12088;53.078;8.720;2023-01-19T04:45:56;2.60;99.90
23815;DHT22;12088;53.078;8.720;2023-01-19T04:48:21;2.70;99.90
23815;DHT22;12088;53.078;8.720;2023-01-19T04:50:47;2.70;99.90
23815;DHT22;12088;53.078;8.720;2023-01-19T04:53:14;2.70;99.90
23815;DHT22;12088;53.078;8.720;2023-01-19T04:55:41;2.70;99.90
23815;DHT22;12088;53.078;8.720;2023-01-19T04:58:07;2.60;99.90
23815;DHT22;12088;53.078;8.720;2023-01-19T05:00:32;2.60;99.90
23815;DHT22;12088;53.078;8.720;2023-01-19T05:02:58;2.50;99.90
23815;DHT22;12088;53.078;8.720;2023-01-19T05:05:23;2.70;99.90
23815;DHT22;12088;53.078;8.720;2023-01-19T05:07:49;2.60;99.90
23815;DHT22;12088;53.078;8.720;2023-01-19T05:10:15;2.60;99.90
23815;DHT22;12088;53.078;8.720;2023-01-19T05:12:40;2.60;99.90
23815;DHT22;12088;53.078;8.720;2023-01-19T05:15:07;2.60;99.90
23815;DHT22;12088;53.078;8.720;2023-01-19T05:17:34;2.60;99.90
23815;DHT22;12088;53.078;8.720;2023-01-19T05:19:59;2.60;99.90
23815;DHT22;12088;53.078;8.720;2023-01-19T05:22:25;2.50;99.90
23815;DHT22;12088;53.078;8.720;2023-01-19T05:24:50;2.50;99.90
23815;DHT22;12088;53.078;8.720;2023-01-19T05:27:16;2.50;99.90
23815;DHT22;12088;53.078;8.720;2023-01-19T05:29:41;2.50;99.90
23815;DHT22;12088;53.078;8.720;2023-01-19T05:32:07;2.60;99.90
23815;DHT22;12088;53.078;8.720;2023-01-19T05:34:33;2.50;99.90
23815;DHT22;12088;53.078;8.720;2023-01-19T05:36:58;2.60;99.90
23815;DHT22;12088;53.078;8.720;2023-01-19T05:39:24;2.60;99.90
23815;DHT22;12088;53.078;8.720;2023-01-19T05:41:51;2.60;99.90
23815;DHT22;12088;53.078;8.720;2023-01-19T05:44:16;2.60;99.90
23815;DHT22;12088;53.078;8.720;2023-01-19T05:46:42;2.60;99.90
23815;DHT22;12088;53.078;8.720;2023-01-19T05:49:07;2.60;99.90
23815;DHT22;12088;53.078;8.720;2023-01-19T05:51:34;2.70;99.90
23815;DHT22;12088;53.078;8.720;2023-01-19T05:54:03;2.70;99.90
23815;DHT22;12088;53.078;8.720;2023-01-19T05:56:29;2.80;99.90
23815;DHT22;12088;53.078;8.720;2023-01-19T05:58:55;2.70;99.90
23815;DHT22;12088;53.078;8.720;2023-01-19T06:01:20;2.80;99.90
23815;DHT22;12088;53.078;8.720;2023-01-19T06:03:46;2.80;99.90
23815;DHT22;12088;53.078;8.720;2023-01-19T06:06:13;2.80;99.90
23815;DHT22;12088;53.078;8.720;2023-01-19T06:08:39;2.80;99.90
23815;DHT22;12088;53.078;8.720;2023-01-19T06:11:05;2.80;99.90
23815;DHT22;12088;53.078;8.720;2023-01-19T06:13:32;2.80;99.90
23815;DHT22;12088;53.078;8.720;2023-01-19T06:16:01;2.80;99.90
23815;DHT22;12088;53.078;8.720;2023-01-19T06:18:27;2.80;99.90
23815;DHT22;12088;53.078;8.720;2023-01-19T06:20:53;2.80;99.90
23815;DHT22;12088;53.078;8.720;2023-01-19T06:23:24;2.80;99.90
23815;DHT22;12088;53.078;8.720;2023-01-19T06:25:50;2.80;99.90
23815;DHT22;12088;53.078;8.720;2023-01-19T06:28:16;2.80;99.90
23815;DHT22;12088;53.078;8.720;2023-01-19T06:30:42;2.80;99.90
23815;DHT22;12088;53.078;8.720;2023-01-19T06:33:07;2.90;99.90
23815;DHT22;12088;53.078;8.720;2023-01-19T06:35:33;2.80;99.90
23815;DHT22;12088;53.078;8.720;2023-01-19T06:38:00;2.80;99.90
23815;DHT22;12088;53.078;8.720;2023-01-19T06:40:25;2.80;99.90
23815;DHT22;12088;53.078;8.720;2023-01-19T06:42:51;2.90;99.90
23815;DHT22;12088;53.078;8.720;2023-01-19T06:45:17;2.80;99.90
23815;DHT22;12088;53.078;8.720;2023-01-19T06:47:45;2.90;99.90
23815;DHT22;12088;53.078;8.720;2023-01-19T06:50:11;2.90;99.90
23815;DHT22;12088;53.078;8.720;2023-01-19T06:52:36;2.90;99.90
23815;DHT22;12088;53.078;8.720;2023-01-19T06:55:09;3.00;99.90
23815;DHT22;12088;53.078;8.720;2023-01-19T06:57:38;2.90;99.90
23815;DHT22;12088;53.078;8.720;2023-01-19T07:00:05;2.90;99.90
23815;DHT22;12088;53.078;8.720;2023-01-19T07:02:35;2.90;99.90
23815;DHT22;12088;53.078;8.720;2023-01-19T07:05:01;2.90;99.90
23815;DHT22;12088;53.078;8.720;2023-01-19T07:07:26;2.80;99.90
23815;DHT22;12088;53.078;8.720;2023-01-19T07:09:52;2.80;99.90
23815;DHT22;12088;53.078;8.720;2023-01-19T07:12:18;2.80;99.90
23815;DHT22;12088;53.078;8.720;2023-01-19T07:14:43;2.80;99.90
23815;DHT22;12088;53.078;8.720;2023-01-19T07:17:09;2.80;99.90
23815;DHT22;12088;53.078;8.720;2023-01-19T07:19:35;2.90;99.90
23815;DHT22;12088;53.078;8.720;2023-01-19T07:22:01;2.80;99.90
23815;DHT22;12088;53.078;8.720;2023-01-19T07:24:27;2.80;99.90
23815;DHT22;12088;53.078;8.720;2023-01-19T07:26:55;2.80;99.90
23815;DHT22;12088;53.078;8.720;2023-01-19T07:29:20;2.70;99.90
23815;DHT22;12088;53.078;8.720;2023-01-19T07:31:46;2.80;99.90
23815;DHT22;12088;53.078;8.720;2023-01-19T07:34:13;2.70;99.90
23815;DHT22;12088;53.078;8.720;2023-01-19T07:36:39;2.70;99.90
23815;DHT22;12088;53.078;8.720;2023-01-19T07:39:04;2.70;99.90
23815;DHT22;12088;53.078;8.720;2023-01-19T07:41:30;2.70;99.90
23815;DHT22;12088;53.078;8.720;2023-01-19T07:43:55;2.70;99.90
23815;DHT22;12088;53.078;8.720;2023-01-19T07:46:21;2.70;99.90
23815;DHT22;12088;53.078;8.720;2023-01-19T07:48:46;2.70;99.90
23815;DHT22;12088;53.078;8.720;2023-01-19T07:51:12;2.70;99.90
23815;DHT22;12088;53.078;8.720;2023-01-19T07:53:48;2.80;99.90
23815;DHT22;12088;53.078;8.720;2023-01-19T07:56:14;2.70;99.90
23815;DHT22;12088;53.078;8.720;2023-01-19T07:58:40;2.80;99.90
23815;DHT22;12088;53.078;8.720;2023-01-19T08:01:10;2.80;99.90
23815;DHT22;12088;53.078;8.720;2023-01-19T08:03:36;2.80;99.90
23815;DHT22;12088;53.078;8.720;2023-01-19T08:06:02;2.80;99.90
23815;DHT22;12088;53.078;8.720;2023-01-19T08:08:32;2.80;99.90
23815;DHT22;12088;53.078;8.720;2023-01-19T08:10:58;2.80;99.90
23815;DHT22;12088;53.078;8.720;2023-01-19T08:13:25;2.80;99.90
23815;DHT22;12088;53.078;8.720;2023-01-19T08:15:51;2.90;99.90
23815;DHT22;12088;53.078;8.720;2023-01-19T08:18:17;2.90;99.90
23815;DHT22;12088;53.078;8.720;2023-01-19T08:20:43;2.90;99.90
23815;DHT22;12088;53.078;8.720;2023-01-19T08:23:09;2.90;99.90
23815;DHT22;12088;53.078;8.720;2023-01-19T08:25:40;3.00;99.90
23815;DHT22;12088;53.078;8.720;2023-01-19T08:28:07;2.90;99.90
23815;DHT22;12088;53.078;8.720;2023-01-19T08:30:34;2.90;99.90
23815;DHT22;12088;53.078;8.720;2023-01-19T08:32:59;3.00;99.90
23815;DHT22;12088;53.078;8.720;2023-01-19T08:35:32;3.20;99.90
23815;DHT22;12088;53.078;8.720;2023-01-19T08:37:59;3.30;99.90
23815;DHT22;12088;53.078;8.720;2023-01-19T08:40:30;3.40;99.90
23815;DHT22;12088;53.078;8.720;2023-01-19T08:43:03;3.50;99.90
23815;DHT22;12088;53.078;8.720;2023-01-19T08:45:35;3.70;99.90
23815;DHT22;12088;53.078;8.720;2023-01-19T08:48:01;3.80;99.90
23815;DHT22;12088;53.078;8.720;2023-01-19T08:50:28;3.60;99.90
23815;DHT22;12088;53.078;8.720;2023-01-19T08:52:55;3.60;99.90
23815;DHT22;12088;53.078;8.720;2023-01-19T08:55:22;3.50;99.90
23815;DHT22;12088;53.078;8.720;2023-01-19T08:57:52;3.50;99.90
23815;DHT22;12088;53.078;8.720;2023-01-19T09:00:19;3.50;99.90
23815;DHT22;12088;53.078;8.720;2023-01-19T09:02:45;3.40;99.90
23815;DHT22;12088;53.078;8.720;2023-01-19T09:05:10;3.40;99.90
23815;DHT22;12088;53.078;8.720;2023-01-19T09:07:36;3.50;99.90
23815;DHT22;12088;53.078;8.720;2023-01-19T09:10:03;3.40;99.90
23815;DHT22;12088;53.078;8.720;2023-01-19T09:12:29;3.20;99.90
23815;DHT22;12088;53.078;8.720;2023-01-19T09:14:55;3.20;99.90
23815;DHT22;12088;53.078;8.720;2023-01-19T09:17:20;3.30;99.90
23815;DHT22;12088;53.078;8.720;2023-01-19T09:19:46;3.40;99.90
23815;DHT22;12088;53.078;8.720;2023-01-19T09:22:11;3.30;99.90
23815;DHT22;12088;53.078;8.720;2023-01-19T09:24:37;3.40;99.90
23815;DHT22;12088;53.078;8.720;2023-01-19T09:27:02;3.60;99.90
23815;DHT22;12088;53.078;8.720;2023-01-19T09:29:28;3.40;99.90
23815;DHT22;12088;53.078;8.720;2023-01-19T09:31:53;3.40;99.90
23815;DHT22;12088;53.078;8.720;2023-01-19T09:34:19;3.40;99.90
23815;DHT22;12088;53.078;8.720;2023-01-19T09:36:47;3.50;99.90
23815;DHT22;12088;53.078;8.720;2023-01-19T09:39:12;3.40;99.90
23815;DHT22;12088;53.078;8.720;2023-01-19T09:41:38;3.30;99.90
23815;DHT22;12088;53.078;8.720;2023-01-19T09:44:19;3.40;99.90
23815;DHT22;12088;53.078;8.720;2023-01-19T09:46:49;3.30;99.90
23815;DHT22;12088;53.078;8.720;2023-01-19T09:49:18;3.40;99.90
23815;DHT22;12088;53.078;8.720;2023-01-19T09:51:45;3.40;99.90
23815;DHT22;12088;53.078;8.720;2023-01-19T09:54:35;3.40;99.90
23815;DHT22;12088;53.078;8.720;2023-01-19T09:57:11;3.30;99.90
23815;DHT22;12088;53.078;8.720;2023-01-19T09:59:37;3.30;99.90
23815;DHT22;12088;53.078;8.720;2023-01-19T10:10:34;3.30;99.90
23815;DHT22;12088;53.078;8.720;2023-01-19T10:13:23;3.20;99.90
23815;DHT22;12088;53.078;8.720;2023-01-19T10:16:03;3.30;99.90
23815;DHT22;12088;53.078;8.720;2023-01-19T10:18:47;3.40;99.90
23815;DHT22;12088;53.078;8.720;2023-01-19T10:21:23;3.50;99.90
23815;DHT22;12088;53.078;8.720;2023-01-19T10:23:52;3.50;99.90
23815;DHT22;12088;53.078;8.720;2023-01-19T10:26:45;3.40;99.90
23815;DHT22;12088;53.078;8.720;2023-01-19T10:29:35;3.40;99.90
23815;DHT22;12088;53.078;8.720;2023-01-19T10:32:14;3.50;99.90
23815;DHT22;12088;53.078;8.720;2023-01-19T10:34:48;3.60;99.90
23815;DHT22;12088;53.078;8.720;2023-01-19T10:39:51;3.80;99.90
23815;DHT22;12088;53.078;8.720;2023-01-19T10:42:18;3.70;99.90
23815;DHT22;12088;53.078;8.720;2023-01-19T10:44:44;3.60;99.90
23815;DHT22;12088;53.078;8.720;2023-01-19T10:47:19;3.60;99.90
23815;DHT22;12088;53.078;8.720;2023-01-19T10:49:45;3.60;99.90
23815;DHT22;12088;53.078;8.720;2023-01-19T10:52:30;3.60;99.90
23815;DHT22;12088;53.078;8.720;2023-01-19T10:54:57;3.60;99.90
23815;DHT22;12088;53.078;8.720;2023-01-19T10:57:41;3.60;99.90
23815;DHT22;12088;53.078;8.720;2023-01-19T11:03:01;3.70;99.90
23815;DHT22;12088;53.078;8.720;2023-01-19T11:05:30;3.80;99.90
23815;DHT22;12088;53.078;8.720;2023-01-19T11:07:56;3.90;99.90
23815;DHT22;12088;53.078;8.720;2023-01-19T11:10:26;4.00;99.90
23815;DHT22;12088;53.078;8.720;2023-01-19T11:12:59;4.10;99.90
23815;DHT22;12088;53.078;8.720;2023-01-19T11:18:06;4.30;99.90
23815;DHT22;12088;53.078;8.720;2023-01-19T11:20:49;4.30;99.90
23815;DHT22;12088;53.078;8.720;2023-01-19T11:25:48;4.50;99.90
23815;DHT22;12088;53.078;8.720;2023-01-19T11:30:59;4.70;99.90
23815;DHT22;12088;53.078;8.720;2023-01-19T11:33:33;4.70;99.90
23815;DHT22;12088;53.078;8.720;2023-01-19T11:36:05;4.70;99.90
23815;DHT22;12088;53.078;8.720;2023-01-19T11:38:42;4.80;99.90
23815;DHT22;12088;53.078;8.720;2023-01-19T11:41:28;4.90;99.90
23815;DHT22;12088;53.078;8.720;2023-01-19T11:44:00;4.90;99.90
23815;DHT22;12088;53.078;8.720;2023-01-19T11:46:32;5.00;99.90
23815;DHT22;12088;53.078;8.720;2023-01-19T11:48:59;5.10;99.90
23815;DHT22;12088;53.078;8.720;2023-01-19T11:51:57;5.10;99.90
23815;DHT22;12088;53.078;8.720;2023-01-19T11:54:43;5.10;99.90
23815;DHT22;12088;53.078;8.720;2023-01-19T11:57:15;5.30;99.90
23815;DHT22;12088;53.078;8.720;2023-01-19T11:59:41;5.40;99.90
23815;DHT22;12088;53.078;8.720;2023-01-19T12:02:22;5.50;99.90
23815;DHT22;12088;53.078;8.720;2023-01-19T12:04:49;5.50;99.90
23815;DHT22;12088;53.078;8.720;2023-01-19T12:07:22;5.40;99.90
23815;DHT22;12088;53.078;8.720;2023-01-19T12:09:56;5.50;99.90
23815;DHT22;12088;53.078;8.720;2023-01-19T12:12:29;5.50;99.90
23815;DHT22;12088;53.078;8.720;2023-01-19T12:15:13;5.50;99.90
23815;DHT22;12088;53.078;8.720;2023-01-19T12:17:49;5.40;99.90
23815;DHT22;12088;53.078;8.720;2023-01-19T12:20:37;5.40;99.90
23815;DHT22;12088;53.078;8.720;2023-01-19T12:25:54;5.30;99.90
23815;DHT22;12088;53.078;8.720;2023-01-19T12:28:29;5.40;99.90
23815;DHT22;12088;53.078;8.720;2023-01-19T12:30:57;5.40;99.90
23815;DHT22;12088;53.078;8.720;2023-01-19T12:33:36;5.30;99.90
23815;DHT22;12088;53.078;8.720;2023-01-19T12:44:13;5.70;99.90
23815;DHT22;12088;53.078;8.720;2023-01-19T12:46:34;6.10;99.90
23815;DHT22;12088;53.078;8.720;2023-01-19T13:02:46;7.40;99.90
23815;DHT22;12088;53.078;8.720;2023-01-19T13:08:15;7.70;99.90
23815;DHT22;12088;53.078;8.720;2023-01-19T13:13:36;7.50;99.90
23815;DHT22;12088;53.078;8.720;2023-01-19T13:18:51;7.80;99.90
23815;DHT22;12088;53.078;8.720;2023-01-19T13:26:27;7.50;99.90
23815;DHT22;12088;53.078;8.720;2023-01-19T13:31:37;7.60;99.90
23815;DHT22;12088;53.078;8.720;2023-01-19T13:34:13;7.60;99.90
23815;DHT22;12088;53.078;8.720;2023-01-19T13:36:43;7.40;99.90
23815;DHT22;12088;53.078;8.720;2023-01-19T13:41:48;7.10;99.90
23815;DHT22;12088;53.078;8.720;2023-01-19T13:44:30;7.20;99.90
23815;DHT22;12088;53.078;8.720;2023-01-19T13:46:57;7.10;99.90
23815;DHT22;12088;53.078;8.720;2023-01-19T13:49:35;6.90;99.90
23815;DHT22;12088;53.078;8.720;2023-01-19T13:52:14;6.60;99.90
23815;DHT22;12088;53.078;8.720;2023-01-19T13:54:56;6.40;99.90
23815;DHT22;12088;53.078;8.720;2023-01-19T14:00:24;6.50;99.90
23815;DHT22;12088;53.078;8.720;2023-01-19T14:10:37;5.80;99.90
23815;DHT22;12088;53.078;8.720;2023-01-19T14:13:35;5.80;99.90
23815;DHT22;12088;53.078;8.720;2023-01-19T14:16:14;5.70;99.90
23815;DHT22;12088;53.078;8.720;2023-01-19T14:18:40;5.60;99.90
23815;DHT22;12088;53.078;8.720;2023-01-19T14:26:54;5.30;99.90
23815;DHT22;12088;53.078;8.720;2023-01-19T14:31:48;4.90;99.90
23815;DHT22;12088;53.078;8.720;2023-01-19T14:39:46;5.20;99.90
23815;DHT22;12088;53.078;8.720;2023-01-19T14:42:16;5.10;99.90
23815;DHT22;12088;53.078;8.720;2023-01-19T14:44:46;5.00;99.90
23815;DHT22;12088;53.078;8.720;2023-01-19T14:47:28;5.00;99.90
23815;DHT22;12088;53.078;8.720;2023-01-19T14:49:58;4.90;99.90
23815;DHT22;12088;53.078;8.720;2023-01-19T14:52:31;4.90;99.90
23815;DHT22;12088;53.078;8.720;2023-01-19T14:54:59;4.90;99.90
23815;DHT22;12088;53.078;8.720;2023-01-19T14:57:27;4.90;99.90
23815;DHT22;12088;53.078;8.720;2023-01-19T14:59:53;4.80;99.90
23815;DHT22;12088;53.078;8.720;2023-01-19T15:02:20;4.80;99.90
23815;DHT22;12088;53.078;8.720;2023-01-19T15:04:46;4.80;99.90
23815;DHT22;12088;53.078;8.720;2023-01-19T15:07:16;4.70;99.90
23815;DHT22;12088;53.078;8.720;2023-01-19T15:09:42;4.70;99.90
23815;DHT22;12088;53.078;8.720;2023-01-19T15:12:10;4.70;99.90
23815;DHT22;12088;53.078;8.720;2023-01-19T15:14:37;4.70;99.90
23815;DHT22;12088;53.078;8.720;2023-01-19T15:17:02;4.70;99.90
23815;DHT22;12088;53.078;8.720;2023-01-19T15:19:28;4.70;99.90
23815;DHT22;12088;53.078;8.720;2023-01-19T15:21:53;4.80;99.90
23815;DHT22;12088;53.078;8.720;2023-01-19T15:24:19;4.70;99.90
23815;DHT22;12088;53.078;8.720;2023-01-19T15:26:45;4.70;99.90
23815;DHT22;12088;53.078;8.720;2023-01-19T15:29:22;4.60;99.90
23815;DHT22;12088;53.078;8.720;2023-01-19T15:31:48;4.50;99.90
23815;DHT22;12088;53.078;8.720;2023-01-19T15:34:13;4.30;99.90
23815;DHT22;12088;53.078;8.720;2023-01-19T15:36:39;4.30;99.90
23815;DHT22;12088;53.078;8.720;2023-01-19T15:39:06;4.20;99.90
23815;DHT22;12088;53.078;8.720;2023-01-19T15:41:31;4.20;99.90
23815;DHT22;12088;53.078;8.720;2023-01-19T15:43:57;4.10;99.90
23815;DHT22;12088;53.078;8.720;2023-01-19T15:46:24;4.10;99.90
23815;DHT22;12088;53.078;8.720;2023-01-19T15:48:50;4.10;99.90
23815;DHT22;12088;53.078;8.720;2023-01-19T15:51:19;4.20;99.90
23815;DHT22;12088;53.078;8.720;2023-01-19T15:53:45;4.20;99.90
23815;DHT22;12088;53.078;8.720;2023-01-19T15:56:18;4.30;99.90
23815;DHT22;12088;53.078;8.720;2023-01-19T15:58:44;4.20;99.90
23815;DHT22;12088;53.078;8.720;2023-01-19T16:01:14;4.20;99.90
23815;DHT22;12088;53.078;8.720;2023-01-19T16:03:41;4.10;99.90
23815;DHT22;12088;53.078;8.720;2023-01-19T16:06:07;3.90;99.90
23815;DHT22;12088;53.078;8.720;2023-01-19T16:08:33;3.90;99.90
23815;DHT22;12088;53.078;8.720;2023-01-19T16:11:06;3.80;99.90
23815;DHT22;12088;53.078;8.720;2023-01-19T16:13:32;3.80;99.90
23815;DHT22;12088;53.078;8.720;2023-01-19T16:16:14;3.60;99.90
23815;DHT22;12088;53.078;8.720;2023-01-19T16:18:39;3.50;99.90
23815;DHT22;12088;53.078;8.720;2023-01-19T16:21:05;3.40;99.90
23815;DHT22;12088;53.078;8.720;2023-01-19T16:23:30;3.40;99.90
23815;DHT22;12088;53.078;8.720;2023-01-19T16:25:58;3.40;99.90
23815;DHT22;12088;53.078;8.720;2023-01-19T16:28:25;3.40;99.90
23815;DHT22;12088;53.078;8.720;2023-01-19T16:30:51;3.50;99.90
23815;DHT22;12088;53.078;8.720;2023-01-19T16:33:17;3.50;99.90
23815;DHT22;12088;53.078;8.720;2023-01-19T16:35:43;3.50;99.90
23815;DHT22;12088;53.078;8.720;2023-01-19T16:38:08;3.40;99.90
23815;DHT22;12088;53.078;8.720;2023-01-19T16:40:34;3.40;99.90
23815;DHT22;12088;53.078;8.720;2023-01-19T16:42:59;3.30;99.90
23815;DHT22;12088;53.078;8.720;2023-01-19T16:45:25;3.30;99.90
23815;DHT22;12088;53.078;8.720;2023-01-19T16:47:50;3.20;99.90
23815;DHT22;12088;53.078;8.720;2023-01-19T16:50:17;3.10;99.90
23815;DHT22;12088;53.078;8.720;2023-01-19T16:52:46;3.10;99.90
23815;DHT22;12088;53.078;8.720;2023-01-19T16:55:11;3.10;99.90
23815;DHT22;12088;53.078;8.720;2023-01-19T16:57:37;3.10;99.90
23815;DHT22;12088;53.078;8.720;2023-01-19T17:00:06;3.10;99.90
23815;DHT22;12088;53.078;8.720;2023-01-19T17:02:33;3.10;99.90
23815;DHT22;12088;53.078;8.720;2023-01-19T17:04:59;3.00;99.90
23815;DHT22;12088;53.078;8.720;2023-01-19T17:07:25;2.70;99.90
23815;DHT22;12088;53.078;8.720;2023-01-19T17:09:51;2.40;99.90
23815;DHT22;12088;53.078;8.720;2023-01-19T17:12:17;2.30;99.90
23815;DHT22;12088;53.078;8.720;2023-01-19T17:14:43;2.10;99.90
23815;DHT22;12088;53.078;8.720;2023-01-19T17:17:12;2.00;99.90
23815;DHT22;12088;53.078;8.720;2023-01-19T17:19:37;2.00;99.90
23815;DHT22;12088;53.078;8.720;2023-01-19T17:22:04;2.00;99.90
23815;DHT22;12088;53.078;8.720;2023-01-19T17:24:29;2.30;99.90
23815;DHT22;12088;53.078;8.720;2023-01-19T17:26:55;2.50;99.90
23815;DHT22;12088;53.078;8.720;2023-01-19T17:29:21;2.70;99.90
23815;DHT22;12088;53.078;8.720;2023-01-19T17:31:49;2.80;99.90
23815;DHT22;12088;53.078;8.720;2023-01-19T17:34:15;2.80;99.90
23815;DHT22;12088;53.078;8.720;2023-01-19T17:36:41;2.60;99.90
23815;DHT22;12088;53.078;8.720;2023-01-19T17:39:10;2.60;99.90
23815;DHT22;12088;53.078;8.720;2023-01-19T17:41:36;2.60;99.90
23815;DHT22;12088;53.078;8.720;2023-01-19T17:44:03;2.70;99.90